Castle Dale, UT

10:45 PM MDT on May 22, 2015 (GMT -0600)
HADS | | Change Station
CLOSE
Current Station
Personal Weather Station
Location: Emery, UT
Elevation: 6439 ft
Nearby Weather Stations

Elev 6439 ft 38.98 °N, 111.25 °W | Updated 30 minutes ago

Rain
Rain
48 °F
Feels Like 48 °F
N
1
Wind Variable Wind from SE
Gusts 1.0 mph

Today
High -- | Low -- °F
--% Chance of Precip.
Yesterday
High -- | Low -- °F
Precip. -- in
6:05 AM 8:36 PM
Waxing Crescent, 26% visible
Pressure 29.85 in
Visibility 10.0 miles
Clouds Scattered Clouds 11000 ft
Windchill 48 °F
Dew Point 35 °F
Humidity 61%
Rainfall in
Snow Depth Not available.
UV 0 out of 12
Pollen 6.00 out of 12
Air Quality Not available.
Flu Activity Sporadic
METAR KPUC 230353Z AUTO 08004KT 10SM SCT110 11/02 A2992 RMK AO2 SLP106 T01060017 TSNO

More Conditions Fewer Conditions

Pressure 29.85 in
Visibility 10.0 miles
Clouds Scattered Clouds 11000 ft
Windchill 48 °F
Dew Point 35 °F
Humidity 61%
Rainfall in
Snow Depth Not available.
UV 0 out of 12
Pollen 6.00 out of 12
Air Quality Not available.
Flu Activity Sporadic
METAR KPUC 230353Z AUTO 08004KT 10SM SCT110 11/02 A2992 RMK AO2 SLP106 T01060017 TSNO

More Conditions Fewer Conditions

10-Day Weather Forecast

Almanac

Astronomy

May. 22, 2015 Rise Set
Actual Time
Civil Twilight
Nautical Twilight
Astronomical Twilight
Moon
Length of Visible Light
Length of Day
Tomorrow will be .
, % of the Moon is Illuminated

Today's Extremes

State Highs State Lows

Community

WunderPhotos

Upload Photos

1,823,387 photos uploaded!

WunderBlogs® & News

Nearby

Air Quality

  Air Quality AQ Index Pollutant
Not available.

Snow Depth

Station Depth Elevation

Earthquake Activity

City Distance Mag. Time & Date
Minimum magnitude displayed is 2.5.

Coastal Water Temperatures

Place Temperature

Stations

Nearby Weather Stations

Station Location Temp. Windchill Dew Point Humidity Wind Precip. Elev Updated Type